Time;durP1;ratioP1;P1;durP2;ratioP2;P2;SDS_P1;SDS_P2;PMS_P1;PMS_P2;Temp;Humidity;BMP_temperature;BMP_pressure;BME280_temperature;BME280_humidity;BME280_pressure;Samples;Min_cycle;Max_cycle;Signal;HPM_P1;HPM_P2
2021/10/14 00:01:06;;;;;;;1.27;0.80;;;21.20;53.10;;;;;;3125171;28;20518;-63
2021/10/14 00:02:39;;;;;;;2.25;0.80;;;21.10;53.10;;;;;;3128088;28;20499;-65
2021/10/14 00:04:13;;;;;;;;;;;21.20;53.10;;;;;;3122515;28;20049;-64
2021/10/14 00:05:45;;;;;;;1.00;0.80;;;21.20;53.00;;;;;;3122634;28;19921;-63
2021/10/14 00:07:17;;;;;;;2.53;0.80;;;21.20;53.00;;;;;;3122298;28;20061;-64
2021/10/14 00:08:48;;;;;;;1.55;0.65;;;21.20;53.00;;;;;;3122255;28;20064;-64
2021/10/14 00:10:20;;;;;;;0.95;0.85;;;21.20;53.00;;;;;;3121893;28;20046;-65
2021/10/14 00:11:52;;;;;;;1.00;0.70;;;21.20;52.90;;;;;;3123982;28;20049;-64
2021/10/14 00:13:23;;;;;;;1.63;0.80;;;21.20;52.90;;;;;;3122756;28;20514;-64
2021/10/14 00:14:55;;;;;;;0.73;0.57;;;21.20;53.10;;;;;;3122366;28;20037;-65
2021/10/14 00:16:27;;;;;;;0.75;0.70;;;21.20;53.10;;;;;;3121609;28;20045;-65
2021/10/14 00:17:59;;;;;;;1.63;0.80;;;21.30;52.90;;;;;;3134407;28;20049;-66
2021/10/14 00:19:31;;;;;;;0.90;0.60;;;21.20;52.90;;;;;;3133581;28;20086;-67
2021/10/14 00:21:03;;;;;;;1.45;0.77;;;21.20;52.90;;;;;;3130184;28;20523;-65
2021/10/14 00:22:34;;;;;;;1.25;0.77;;;21.30;52.80;;;;;;3122689;28;20407;-65
2021/10/14 00:24:06;;;;;;;1.80;0.82;;;21.30;52.90;;;;;;3121025;28;20046;-65
2021/10/14 00:25:39;;;;;;;1.13;0.70;;;21.30;52.80;;;;;;3122745;28;20140;-63
2021/10/14 00:27:11;;;;;;;;;;;21.30;52.80;;;;;;3115204;28;20099;-67
2021/10/14 00:28:42;;;;;;;1.05;0.63;;;21.30;52.80;;;;;;3132664;28;19921;-61
2021/10/14 00:30:14;;;;;;;0.90;0.70;;;21.30;52.80;;;;;;3120308;28;20060;-65
2021/10/14 00:31:45;;;;;;;0.80;0.68;;;21.30;52.80;;;;;;3122034;28;20049;-65
2021/10/14 00:33:18;;;;;;;0.85;0.70;;;21.30;52.90;;;;;;3122161;28;20050;-63
2021/10/14 00:34:50;;;;;;;1.33;0.80;;;21.30;52.90;;;;;;3121542;28;20049;-65
2021/10/14 00:36:22;;;;;;;1.48;0.85;;;21.30;52.90;;;;;;3122024;28;20049;-65
2021/10/14 00:37:54;;;;;;;0.98;0.75;;;21.30;52.80;;;;;;3121151;28;20477;-65
2021/10/14 00:39:25;;;;;;;1.48;0.70;;;21.30;52.90;;;;;;3121509;28;20048;-67
2021/10/14 00:40:57;;;;;;;0.82;0.60;;;21.30;52.90;;;;;;3121789;28;20401;-65
2021/10/14 00:42:29;;;;;;;1.13;0.70;;;21.30;52.80;;;;;;3121974;28;20049;-65
2021/10/14 00:44:00;;;;;;;1.70;0.73;;;21.30;52.80;;;;;;3121236;28;20054;-65
2021/10/14 00:45:32;;;;;;;1.08;0.80;;;21.40;52.80;;;;;;3121533;28;20046;-65
2021/10/14 00:47:04;;;;;;;1.27;0.68;;;21.40;52.80;;;;;;3121930;28;20053;-66
2021/10/14 00:48:37;;;;;;;1.08;0.70;;;21.40;52.70;;;;;;3121411;28;20045;-65
2021/10/14 00:50:09;;;;;;;;;;;21.40;52.70;;;;;;3121412;28;20042;-66
2021/10/14 00:51:41;;;;;;;1.30;0.70;;;21.40;52.80;;;;;;3121983;28;19947;-65
2021/10/14 00:53:12;;;;;;;2.28;0.90;;;21.30;52.80;;;;;;3121702;28;20092;-67
2021/10/14 00:54:43;;;;;;;1.05;0.63;;;21.40;52.70;;;;;;3121097;28;20053;-65
2021/10/14 00:56:15;;;;;;;1.33;0.80;;;21.40;52.70;;;;;;3121975;28;20041;-65
2021/10/14 00:57:47;;;;;;;1.25;0.80;;;21.40;52.80;;;;;;3121648;28;20068;-66
2021/10/14 00:59:19;;;;;;;1.77;0.95;;;21.30;52.80;;;;;;3121262;28;20042;-66
2021/10/14 01:00:51;;;;;;;0.85;0.70;;;21.30;52.80;;;;;;3110248;28;20476;-65
2021/10/14 01:02:23;;;;;;;0.70;0.60;;;21.40;53.40;;;;;;3109751;28;20072;-67
2021/10/14 01:03:56;;;;;;;1.23;0.68;;;21.40;52.90;;;;;;3108959;28;20278;-65
2021/10/14 01:05:27;;;;;;;;;;;21.40;52.80;;;;;;3110015;28;20049;-64
2021/10/14 01:06:59;;;;;;;1.25;0.80;;;21.30;52.80;;;;;;3109262;28;19929;-66
2021/10/14 01:08:31;;;;;;;1.02;0.70;;;21.40;52.80;;;;;;3109543;28;20042;-67
2021/10/14 01:10:04;;;;;;;1.67;0.70;;;21.40;52.80;;;;;;3108504;28;20053;-65
2021/10/14 01:11:35;;;;;;;1.33;0.73;;;21.40;52.70;;;;;;3109321;28;20452;-65
2021/10/14 01:13:07;;;;;;;2.08;0.70;;;21.50;52.60;;;;;;3109264;28;20080;-66
2021/10/14 01:14:38;;;;;;;1.15;0.70;;;21.40;52.60;;;;;;3109086;28;20073;-63
2021/10/14 01:16:10;;;;;;;1.27;0.70;;;21.40;52.60;;;;;;3108370;28;20448;-65
2021/10/14 01:17:42;;;;;;;2.70;0.70;;;21.40;52.70;;;;;;3108969;28;20108;-65
2021/10/14 01:19:15;;;;;;;1.42;0.68;;;21.40;52.70;;;;;;3109102;28;20050;-65
2021/10/14 01:20:48;;;;;;;0.65;0.63;;;21.50;52.70;;;;;;3109153;28;20531;-65
2021/10/14 01:22:20;;;;;;;1.13;0.70;;;21.40;52.70;;;;;;3109361;28;20107;-65
2021/10/14 01:23:52;;;;;;;1.08;0.70;;;21.40;52.80;;;;;;3108993;28;20049;-67
2021/10/14 01:25:24;;;;;;;1.35;0.65;;;21.40;52.90;;;;;;3109171;28;20293;-65
2021/10/14 01:26:56;;;;;;;0.88;0.65;;;21.40;52.80;;;;;;3113536;28;20045;-65
2021/10/14 01:28:28;;;;;;;1.35;0.70;;;21.40;52.80;;;;;;3111064;28;20523;-65
2021/10/14 01:29:58;;;;;;;1.77;0.65;;;21.40;52.80;;;;;;3120585;28;20054;-64
2021/10/14 01:31:30;;;;;;;0.75;0.50;;;21.40;52.80;;;;;;3120810;28;20045;-67
2021/10/14 01:33:02;;;;;;;0.85;0.50;;;21.40;52.80;;;;;;3120897;28;20052;-64
2021/10/14 01:34:33;;;;;;;0.98;0.63;;;21.40;52.80;;;;;;3120640;28;20042;-66
2021/10/14 01:36:06;;;;;;;1.67;0.50;;;21.40;52.80;;;;;;3121471;28;20050;-64
2021/10/14 01:37:37;;;;;;;0.82;0.80;;;21.50;52.70;;;;;;3121895;28;20523;-67
2021/10/14 01:39:09;;;;;;;0.85;0.52;;;21.40;52.70;;;;;;3120550;28;20055;-64
2021/10/14 01:40:41;;;;;;;0.77;0.60;;;21.40;52.70;;;;;;3120928;28;20049;-65
2021/10/14 01:42:11;;;;;;;0.60;0.52;;;21.40;52.80;;;;;;3121820;28;20412;-64
2021/10/14 01:43:45;;;;;;;2.15;0.85;;;21.40;52.70;;;;;;3121491;28;20045;-64
2021/10/14 01:45:17;;;;;;;1.15;0.70;;;21.40;52.80;;;;;;3122190;28;20052;-65
2021/10/14 01:46:48;;;;;;;1.10;0.65;;;21.40;52.80;;;;;;3133580;28;20063;-66
2021/10/14 01:48:20;;;;;;;0.80;0.60;;;21.40;52.80;;;;;;3133823;28;20381;-64
2021/10/14 01:49:52;;;;;;;1.75;0.70;;;21.40;52.80;;;;;;3132265;28;20045;-64
2021/10/14 01:51:25;;;;;;;1.08;0.60;;;21.50;52.70;;;;;;3133874;28;20079;-64
2021/10/14 01:52:56;;;;;;;1.20;0.65;;;21.40;52.70;;;;;;3127470;28;20488;-64
2021/10/14 01:54:28;;;;;;;0.93;0.63;;;21.50;52.70;;;;;;3120656;28;20462;-64
2021/10/14 01:56:00;;;;;;;0.65;0.52;;;21.50;52.60;;;;;;3121522;28;20057;-64
2021/10/14 01:57:32;;;;;;;0.85;0.60;;;21.50;52.60;;;;;;3121358;28;20049;-64
2021/10/14 01:59:03;;;;;;;1.55;0.70;;;21.50;52.70;;;;;;3120422;28;20049;-65
2021/10/14 02:00:35;;;;;;;1.23;0.60;;;21.50;52.80;;;;;;3112577;28;20050;-64
2021/10/14 02:02:07;;;;;;;0.88;0.70;;;21.50;52.80;;;;;;3108942;28;20050;-64
2021/10/14 02:03:38;;;;;;;1.48;0.60;;;21.50;52.80;;;;;;3108975;28;20054;-64
2021/10/14 02:05:10;;;;;;;0.90;0.60;;;21.50;52.80;;;;;;3108363;28;20046;-64
2021/10/14 02:06:43;;;;;;;0.77;0.52;;;21.50;52.80;;;;;;3109559;28;20077;-64
2021/10/14 02:08:15;;;;;;;0.85;0.60;;;21.50;52.80;;;;;;3108990;28;20111;-64
2021/10/14 02:09:47;;;;;;;1.15;0.65;;;21.50;52.70;;;;;;3107535;28;20574;-64
2021/10/14 02:11:19;;;;;;;1.20;0.57;;;21.50;52.70;;;;;;3109002;28;20520;-64
2021/10/14 02:12:51;;;;;;;1.88;0.70;;;21.50;52.60;;;;;;3108707;28;20455;-64
2021/10/14 02:14:23;;;;;;;0.75;0.50;;;21.50;52.60;;;;;;3107768;28;20049;-64
2021/10/14 02:15:55;;;;;;;0.73;0.57;;;21.50;52.60;;;;;;3106452;28;20054;-64
2021/10/14 02:17:27;;;;;;;1.33;0.68;;;21.50;52.60;;;;;;3109028;28;20046;-64
2021/10/14 02:18:58;;;;;;;0.93;0.65;;;21.60;52.60;;;;;;3108510;28;20046;-67
2021/10/14 02:20:30;;;;;;;1.45;0.63;;;21.50;52.60;;;;;;3108636;28;20060;-64
2021/10/14 02:22:04;;;;;;;0.75;0.60;;;21.50;52.80;;;;;;3108896;28;20132;-64
2021/10/14 02:23:35;;;;;;;0.63;0.60;;;21.50;52.80;;;;;;3108999;28;20049;-64
2021/10/14 02:25:07;;;;;;;1.13;0.60;;;21.60;52.70;;;;;;3108306;28;20077;-64
2021/10/14 02:26:39;;;;;;;1.07;0.60;;;21.60;52.60;;;;;;3108941;28;20133;-64
2021/10/14 02:28:11;;;;;;;1.77;0.70;;;21.50;52.60;;;;;;3108675;28;20054;-66
2021/10/14 02:29:42;;;;;;;1.25;0.68;;;21.60;52.60;;;;;;3108074;28;20500;-64
2021/10/14 02:31:13;;;;;;;0.90;0.65;;;21.50;52.70;;;;;;3108036;28;20092;-64
2021/10/14 02:32:45;;;;;;;0.65;0.60;;;21.50;52.70;;;;;;3112875;28;20418;-64
2021/10/14 02:34:16;;;;;;;0.70;0.50;;;21.60;52.80;;;;;;3110253;28;20092;-64
2021/10/14 02:35:49;;;;;;;0.70;0.50;;;21.60;52.80;;;;;;3121383;28;20046;-65
2021/10/14 02:37:22;;;;;;;0.75;0.60;;;21.60;52.60;;;;;;3121149;28;20060;-64
2021/10/14 02:38:56;;;;;;;0.68;0.68;;;21.60;52.70;;;;;;3119779;28;20046;-66
2021/10/14 02:40:28;;;;;;;1.27;0.52;;;21.50;52.70;;;;;;3120993;28;20049;-64
2021/10/14 02:41:59;;;;;;;0.80;0.60;;;21.60;52.70;;;;;;3121275;28;20080;-66
2021/10/14 02:43:31;;;;;;;1.13;0.70;;;21.50;52.80;;;;;;3120909;28;20128;-64
2021/10/14 02:45:04;;;;;;;2.40;0.70;;;21.50;52.80;;;;;;3116291;28;20103;-64
2021/10/14 02:46:35;;;;;;;1.05;0.60;;;21.60;52.80;;;;;;3120633;28;20053;-63
2021/10/14 02:48:07;;;;;;;1.08;0.60;;;21.60;52.80;;;;;;3121118;28;20049;-63
2021/10/14 02:49:39;;;;;;;0.60;0.57;;;21.60;52.80;;;;;;3120046;28;20827;-64
2021/10/14 02:51:10;;;;;;;1.02;0.60;;;21.50;52.70;;;;;;3120513;28;20045;-64
2021/10/14 02:52:43;;;;;;;0.95;0.50;;;21.60;52.60;;;;;;3121108;28;20053;-64
2021/10/14 02:54:15;;;;;;;1.55;0.70;;;21.50;52.70;;;;;;3120478;28;20045;-64
2021/10/14 02:55:47;;;;;;;1.27;0.60;;;21.50;52.80;;;;;;3121187;28;20424;-64
2021/10/14 02:57:19;;;;;;;0.90;0.60;;;21.50;52.80;;;;;;3121062;28;20049;-65
2021/10/14 02:58:50;;;;;;;0.55;0.50;;;21.50;52.90;;;;;;3121330;28;20049;-65
2021/10/14 03:00:21;;;;;;;0.80;0.65;;;21.50;52.90;;;;;;3112977;28;20056;-64
2021/10/14 03:01:55;;;;;;;0.68;0.52;;;21.50;53.00;;;;;;3111029;28;20041;-65
2021/10/14 03:03:27;;;;;;;0.95;0.57;;;21.50;53.10;;;;;;3110952;28;20058;-65
2021/10/14 03:04:58;;;;;;;0.90;0.60;;;21.60;52.80;;;;;;3110206;28;20489;-64
2021/10/14 03:06:30;;;;;;;0.90;0.60;;;21.60;52.90;;;;;;3111123;28;20056;-62
2021/10/14 03:08:03;;;;;;;0.43;0.40;;;21.50;52.90;;;;;;3110941;28;20049;-64
2021/10/14 03:09:34;;;;;;;0.88;0.60;;;21.50;52.90;;;;;;3110474;28;20077;-65
2021/10/14 03:11:06;;;;;;;0.90;0.55;;;21.50;52.80;;;;;;3110650;28;20057;-64
2021/10/14 03:12:38;;;;;;;0.60;0.60;;;21.60;52.80;;;;;;3110892;28;20053;-64
2021/10/14 03:14:08;;;;;;;0.95;0.65;;;21.50;52.80;;;;;;3110062;28;20839;-62
2021/10/14 03:15:40;;;;;;;0.77;0.60;;;21.50;52.90;;;;;;3110356;28;20064;-64
2021/10/14 03:17:12;;;;;;;1.20;0.57;;;21.50;52.90;;;;;;3111147;28;20045;-64
2021/10/14 03:18:43;;;;;;;0.60;0.50;;;21.50;52.90;;;;;;3111002;28;20412;-64
2021/10/14 03:20:15;;;;;;;0.70;0.50;;;21.50;53.40;;;;;;3109615;28;20611;-65
2021/10/14 03:21:47;;;;;;;0.70;0.60;;;21.60;52.90;;;;;;3111186;28;20133;-61
2021/10/14 03:23:20;;;;;;;0.73;0.50;;;21.60;52.80;;;;;;3110426;28;20065;-62
2021/10/14 03:24:51;;;;;;;1.30;0.50;;;21.50;52.80;;;;;;3109947;28;20551;-65
2021/10/14 03:26:23;;;;;;;0.75;0.60;;;21.50;52.90;;;;;;3110932;28;20489;-65
2021/10/14 03:27:55;;;;;;;0.63;0.50;;;21.50;52.80;;;;;;3118312;28;20052;-63
2021/10/14 03:29:26;;;;;;;1.42;0.60;;;21.60;52.90;;;;;;3128964;28;20052;-63
2021/10/14 03:30:58;;;;;;;0.68;0.60;;;21.60;52.90;;;;;;3133205;28;20060;-65
2021/10/14 03:32:30;;;;;;;0.60;0.50;;;21.50;52.80;;;;;;3133974;28;20044;-64
2021/10/14 03:34:01;;;;;;;0.52;0.50;;;21.50;52.90;;;;;;3127198;28;20049;-62
2021/10/14 03:35:33;;;;;;;0.65;0.50;;;21.50;52.90;;;;;;3135038;28;20056;-64
2021/10/14 03:37:05;;;;;;;2.53;0.60;;;21.60;52.90;;;;;;3133251;28;20064;-63
2021/10/14 03:38:38;;;;;;;0.50;0.50;;;21.60;52.80;;;;;;3132419;28;20051;-61
2021/10/14 03:40:11;;;;;;;0.55;0.50;;;21.60;52.90;;;;;;3121741;28;20056;-65
2021/10/14 03:41:43;;;;;;;;;;;21.60;53.00;;;;;;3123253;28;20050;-64
2021/10/14 03:43:14;;;;;;;1.42;0.60;;;21.60;52.90;;;;;;3122359;28;19921;-66
2021/10/14 03:44:46;;;;;;;1.10;0.57;;;21.60;52.80;;;;;;3121579;28;20057;-61
2021/10/14 03:46:18;;;;;;;0.50;0.50;;;21.60;52.80;;;;;;3121822;28;20046;-64
2021/10/14 03:47:49;;;;;;;0.80;0.55;;;21.60;52.80;;;;;;3118588;28;20057;-63
2021/10/14 03:49:21;;;;;;;0.85;0.50;;;21.60;52.80;;;;;;3113522;28;20054;-64
2021/10/14 03:50:53;;;;;;;0.80;0.63;;;21.60;52.90;;;;;;3122588;28;20077;-65
2021/10/14 03:52:24;;;;;;;0.85;0.50;;;21.60;52.80;;;;;;3122140;28;20045;-62
2021/10/14 03:53:57;;;;;;;0.57;0.50;;;21.70;52.70;;;;;;3120993;28;20053;-63
2021/10/14 03:55:29;;;;;;;0.65;0.40;;;21.80;52.70;;;;;;3122616;28;20574;-65
2021/10/14 03:57:01;;;;;;;0.57;0.50;;;21.90;52.50;;;;;;3122666;28;20053;-65
2021/10/14 03:58:32;;;;;;;0.80;0.50;;;22.00;52.20;;;;;;3122675;28;20049;-64
2021/10/14 04:00:05;;;;;;;0.90;0.57;;;22.10;52.00;;;;;;3124035;28;20048;-62
2021/10/14 04:01:36;;;;;;;0.98;0.70;;;22.20;51.90;;;;;;3132324;28;20056;-63
2021/10/14 04:03:08;;;;;;;0.82;0.57;;;22.20;51.70;;;;;;3134686;28;20049;-63
2021/10/14 04:04:40;;;;;;;1.00;0.52;;;22.30;51.60;;;;;;3132314;28;20538;-65
2021/10/14 04:06:12;;;;;;;0.80;0.55;;;22.40;51.40;;;;;;3121653;28;20060;-67
2021/10/14 04:07:43;;;;;;;0.50;0.45;;;22.50;51.30;;;;;;3124518;28;20053;-68
2021/10/14 04:09:16;;;;;;;1.85;0.60;;;22.60;51.20;;;;;;3121210;28;20045;-65
2021/10/14 04:10:48;;;;;;;4.82;0.52;;;22.50;51.40;;;;;;3115697;28;20045;-67
2021/10/14 04:12:20;;;;;;;1.20;0.50;;;22.60;51.40;;;;;;3121927;28;20056;-66
2021/10/14 04:13:51;;;;;;;2.80;0.50;;;22.70;51.20;;;;;;3122178;28;20050;-62
2021/10/14 04:15:23;;;;;;;1.15;0.60;;;22.80;51.00;;;;;;3119541;28;20206;-65
2021/10/14 04:16:55;;;;;;;3.55;0.70;;;22.90;50.70;;;;;;3122246;28;20057;-65
2021/10/14 04:18:26;;;;;;;2.13;0.50;;;22.90;50.50;;;;;;3121529;28;20080;-64
2021/10/14 04:19:58;;;;;;;0.88;0.50;;;23.00;50.50;;;;;;3120947;28;20488;-65
2021/10/14 04:21:31;;;;;;;0.67;0.40;;;23.10;50.40;;;;;;3122475;28;20107;-65
2021/10/14 04:23:03;;;;;;;0.90;0.57;;;23.10;50.30;;;;;;3120442;28;20049;-65
2021/10/14 04:24:38;;;;;;;2.75;0.50;;;23.20;50.20;;;;;;3121220;28;20050;-65
2021/10/14 04:26:10;;;;;;;1.40;0.57;;;23.20;50.20;;;;;;3121480;28;20053;-65
2021/10/14 04:27:42;;;;;;;2.20;0.50;;;23.20;50.10;;;;;;3122016;28;20140;-64
2021/10/14 04:29:14;;;;;;;1.20;0.60;;;23.20;50.10;;;;;;3121469;28;20056;-65
2021/10/14 04:30:48;;;;;;;0.57;0.43;;;23.20;50.00;;;;;;3120085;28;20049;-65
2021/10/14 04:32:22;;;;;;;0.77;0.50;;;23.20;50.10;;;;;;3122311;28;20053;-65
2021/10/14 04:33:54;;;;;;;1.23;0.60;;;23.20;50.10;;;;;;3121689;28;20049;-65
2021/10/14 04:35:25;;;;;;;2.15;0.57;;;23.20;50.10;;;;;;3121049;28;20049;-65
2021/10/14 04:36:57;;;;;;;2.25;0.50;;;23.20;50.20;;;;;;3122346;28;20057;-65
2021/10/14 04:38:29;;;;;;;0.40;0.40;;;23.20;50.30;;;;;;3121916;28;20389;-65
2021/10/14 04:40:02;;;;;;;1.73;0.70;;;23.20;50.40;;;;;;3119384;28;20041;-65
2021/10/14 04:41:34;;;;;;;0.60;0.40;;;23.10;50.40;;;;;;3121421;28;20053;-65
2021/10/14 04:43:05;;;;;;;1.38;0.47;;;23.10;50.60;;;;;;3122362;28;20045;-65
2021/10/14 04:44:37;;;;;;;0.60;0.50;;;23.10;51.20;;;;;;3121240;28;20056;-65
2021/10/14 04:46:09;;;;;;;1.17;0.50;;;23.10;50.60;;;;;;3120730;28;20412;-66
2021/10/14 04:47:41;;;;;;;0.93;0.60;;;23.10;50.70;;;;;;3121695;28;20095;-65
2021/10/14 04:49:11;;;;;;;1.40;0.45;;;23.00;50.60;;;;;;3121645;28;20045;-65
2021/10/14 04:50:43;;;;;;;0.65;0.60;;;23.00;50.70;;;;;;3120734;28;20041;-65
2021/10/14 04:52:15;;;;;;;0.43;0.40;;;23.00;50.90;;;;;;3121926;28;20064;-65
2021/10/14 04:53:47;;;;;;;2.17;0.55;;;23.00;51.50;;;;;;3120797;28;20049;-65
2021/10/14 04:55:20;;;;;;;0.95;0.50;;;23.00;50.90;;;;;;3121376;28;20072;-65
2021/10/14 04:56:52;;;;;;;0.30;0.30;;;22.90;50.90;;;;;;3121994;28;20050;-65
2021/10/14 04:58:23;;;;;;;1.00;0.30;;;22.90;51.10;;;;;;3122029;28;20062;-65
2021/10/14 04:59:55;;;;;;;2.03;0.43;;;22.90;51.00;;;;;;3118129;28;20515;-64
2021/10/14 05:01:26;;;;;;;0.40;0.40;;;22.90;51.20;;;;;;3122298;28;20081;-65
2021/10/14 05:02:58;;;;;;;1.17;0.50;;;22.80;51.40;;;;;;3119643;28;20296;-65
2021/10/14 05:04:30;;;;;;;0.40;0.40;;;22.80;51.40;;;;;;3120949;28;20052;-65
2021/10/14 05:06:01;;;;;;;2.00;0.45;;;22.80;51.40;;;;;;3121431;28;20058;-65
2021/10/14 05:07:33;;;;;;;2.30;0.60;;;22.80;51.60;;;;;;3120723;28;20041;-64
2021/10/14 05:09:05;;;;;;;5.93;0.77;;;22.70;52.20;;;;;;3120013;28;20045;-64
2021/10/14 05:10:38;;;;;;;4.22;0.60;;;22.40;52.60;;;;;;3120720;28;20048;-64
2021/10/14 05:12:11;;;;;;;2.65;0.60;;;22.30;53.30;;;;;;3120499;28;20715;-64
2021/10/14 05:13:43;;;;;;;5.60;0.70;;;22.30;53.50;;;;;;3121329;28;20053;-65
2021/10/14 05:15:14;;;;;;;5.05;0.70;;;22.20;53.60;;;;;;3120217;28;20100;-65
2021/10/14 05:16:46;;;;;;;3.17;0.90;;;22.20;53.70;;;;;;3121897;28;20053;-64
2021/10/14 05:18:18;;;;;;;7.07;0.75;;;22.30;54.30;;;;;;3121515;28;20053;-64
2021/10/14 05:19:50;;;;;;;5.00;0.80;;;22.30;53.60;;;;;;3120377;28;20128;-64
2021/10/14 05:21:21;;;;;;;6.55;0.50;;;22.30;53.60;;;;;;3121673;28;20057;-65
2021/10/14 05:22:53;;;;;;;3.30;1.15;;;22.40;53.70;;;;;;3121778;28;20060;-64
2021/10/14 05:24:25;;;;;;;3.88;0.57;;;22.40;53.60;;;;;;3119955;28;20045;-65
2021/10/14 05:25:58;;;;;;;4.15;0.50;;;22.50;53.60;;;;;;3121684;28;20049;-65
2021/10/14 05:27:30;;;;;;;5.70;0.52;;;22.60;53.40;;;;;;3118854;28;20725;-64
2021/10/14 05:29:02;;;;;;;1.50;0.63;;;22.60;53.20;;;;;;3120947;28;20596;-63
2021/10/14 05:30:33;;;;;;;4.25;0.70;;;22.70;53.20;;;;;;3119060;28;20045;-64
2021/10/14 05:32:06;;;;;;;5.38;0.60;;;22.70;53.10;;;;;;3121118;28;20050;-65
2021/10/14 05:33:38;;;;;;;1.88;0.70;;;22.70;52.90;;;;;;3120969;28;20052;-64
2021/10/14 05:35:09;;;;;;;2.10;0.63;;;22.80;53.00;;;;;;3120909;28;20057;-65
2021/10/14 05:36:41;;;;;;;5.97;0.70;;;22.80;52.90;;;;;;3120897;28;20362;-64
2021/10/14 05:38:13;;;;;;;3.78;0.60;;;22.80;52.70;;;;;;3121520;28;20060;-64
2021/10/14 05:39:45;;;;;;;4.43;0.63;;;22.90;52.50;;;;;;3118975;28;20053;-64
2021/10/14 05:41:18;;;;;;;7.07;0.60;;;22.90;52.60;;;;;;3121658;28;20060;-64
2021/10/14 05:42:49;;;;;;;;;;;22.90;52.40;;;;;;3121652;28;20053;-65
2021/10/14 05:44:21;;;;;;;4.63;0.50;;;22.90;52.40;;;;;;3119221;28;19921;-63
2021/10/14 05:45:53;;;;;;;5.20;0.70;;;23.00;52.50;;;;;;3120075;28;20053;-64
2021/10/14 05:47:25;;;;;;;10.38;0.60;;;23.00;52.70;;;;;;3120538;28;20053;-64
2021/10/14 05:48:56;;;;;;;4.40;0.63;;;23.00;52.20;;;;;;3118946;28;20045;-65
2021/10/14 05:50:28;;;;;;;1.45;0.50;;;22.90;52.40;;;;;;3120856;28;20050;-64
2021/10/14 05:52:00;;;;;;;3.92;0.60;;;23.00;52.50;;;;;;3121010;28;20049;-64
2021/10/14 05:53:31;;;;;;;6.35;0.68;;;23.00;52.60;;;;;;3120611;28;20060;-64
2021/10/14 05:55:03;;;;;;;4.13;0.60;;;23.00;52.80;;;;;;3118071;28;20128;-63
2021/10/14 05:56:36;;;;;;;2.67;0.60;;;23.00;53.00;;;;;;3121009;28;20468;-64
2021/10/14 05:58:08;;;;;;;2.97;0.60;;;23.00;53.20;;;;;;3120000;28;20076;-64
2021/10/14 05:59:40;;;;;;;4.68;0.70;;;23.00;53.30;;;;;;3119237;28;20092;-64
2021/10/14 06:01:11;;;;;;;5.28;0.52;;;22.90;53.40;;;;;;3114200;28;20049;-64
2021/10/14 06:02:43;;;;;;;4.03;0.70;;;22.90;53.50;;;;;;3121059;28;20626;-63
2021/10/14 06:04:15;;;;;;;3.28;0.70;;;22.90;53.60;;;;;;3117705;28;21283;-64
2021/10/14 06:05:47;;;;;;;3.30;0.80;;;22.90;53.70;;;;;;3114879;28;20046;-64
2021/10/14 06:07:18;;;;;;;2.25;0.60;;;22.90;53.90;;;;;;3119249;28;20068;-63
2021/10/14 06:08:50;;;;;;;3.38;0.57;;;22.80;53.90;;;;;;3119849;28;20053;-64
2021/10/14 06:10:22;;;;;;;1.25;0.55;;;22.80;53.90;;;;;;3113968;28;20037;-64
2021/10/14 06:11:55;;;;;;;5.15;0.73;;;22.80;54.00;;;;;;3121284;28;20057;-63
2021/10/14 06:13:27;;;;;;;4.80;0.65;;;22.80;54.10;;;;;;3124764;28;20056;-64
2021/10/14 06:14:59;;;;;;;2.42;0.60;;;22.80;54.20;;;;;;3120033;28;20058;-64
2021/10/14 06:16:32;;;;;;;5.07;0.80;;;22.80;54.10;;;;;;3120085;28;20511;-64
2021/10/14 06:18:03;;;;;;;2.92;0.80;;;22.80;54.10;;;;;;3120878;28;20052;-64
2021/10/14 06:19:35;;;;;;;1.70;0.63;;;22.80;54.10;;;;;;3119477;28;20147;-64
2021/10/14 06:21:07;;;;;;;2.35;0.80;;;22.90;54.10;;;;;;3120302;28;20038;-64
2021/10/14 06:22:40;;;;;;;2.60;0.65;;;22.90;54.10;;;;;;3120666;28;20056;-64
2021/10/14 06:24:11;;;;;;;3.95;0.80;;;22.90;54.10;;;;;;3119536;28;20072;-64
2021/10/14 06:25:43;;;;;;;5.70;0.60;;;22.90;54.10;;;;;;3117366;28;20053;-64
2021/10/14 06:27:16;;;;;;;4.80;0.80;;;22.90;54.10;;;;;;3109172;28;20057;-64
2021/10/14 06:28:48;;;;;;;2.83;0.80;;;22.90;54.10;;;;;;3108958;28;20046;-64
2021/10/14 06:30:20;;;;;;;2.28;0.80;;;22.90;54.10;;;;;;3116811;28;20042;-64
2021/10/14 06:31:52;;;;;;;2.50;0.70;;;22.90;54.10;;;;;;3121980;28;20050;-63
2021/10/14 06:33:23;;;;;;;2.83;0.70;;;22.90;54.10;;;;;;3124641;28;20050;-64
2021/10/14 06:34:55;;;;;;;2.38;0.90;;;22.90;54.10;;;;;;3120367;28;20051;-64
2021/10/14 06:36:27;;;;;;;1.77;0.65;;;22.90;54.10;;;;;;3121670;28;20045;-64
2021/10/14 06:37:59;;;;;;;2.33;0.65;;;23.00;54.10;;;;;;3123032;28;20115;-64
2021/10/14 06:39:32;;;;;;;3.25;0.60;;;23.00;54.10;;;;;;3122130;28;20460;-64
2021/10/14 06:41:04;;;;;;;3.90;0.95;;;22.90;54.10;;;;;;3126172;28;20057;-61
2021/10/14 06:42:37;;;;;;;1.23;0.60;;;23.00;54.10;;;;;;3135203;28;20041;-62
2021/10/14 06:44:08;;;;;;;5.82;0.75;;;22.90;53.80;;;;;;3126498;28;20614;-60
2021/10/14 06:45:40;;;;;;;1.50;0.63;;;22.90;53.20;;;;;;3123212;28;20081;-61
2021/10/14 06:47:12;;;;;;;1.77;0.75;;;22.90;53.20;;;;;;3123326;28;20049;-61
2021/10/14 06:48:43;;;;;;;1.77;0.70;;;22.80;53.20;;;;;;3126405;28;20045;-64
2021/10/14 06:50:17;;;;;;;3.05;0.93;;;22.80;52.90;;;;;;3124826;28;20467;-64
2021/10/14 06:51:50;;;;;;;2.13;0.80;;;22.80;52.80;;;;;;3119829;28;20067;-64
2021/10/14 06:53:23;;;;;;;2.67;0.77;;;22.80;53.00;;;;;;3118378;28;20049;-64
2021/10/14 06:54:54;;;;;;;3.08;0.93;;;22.90;52.90;;;;;;3122302;28;20053;-64
2021/10/14 06:56:26;;;;;;;2.78;0.82;;;23.00;52.90;;;;;;3123437;28;20049;-64
2021/10/14 06:58:00;;;;;;;2.70;0.70;;;23.00;52.90;;;;;;3123241;28;20515;-64
2021/10/14 06:59:32;;;;;;;2.50;0.90;;;23.00;52.90;;;;;;3120978;28;20380;-64
2021/10/14 07:01:04;;;;;;;4.90;0.80;;;23.00;53.60;;;;;;3109980;28;20038;-64
2021/10/14 07:02:35;;;;;;;1.73;0.80;;;23.10;53.00;;;;;;3126494;28;20060;-64
2021/10/14 07:04:07;;;;;;;2.40;0.68;;;23.10;53.60;;;;;;3130349;28;20427;-63
2021/10/14 07:05:39;;;;;;;2.05;0.77;;;23.10;52.90;;;;;;3125493;28;20052;-64
2021/10/14 07:07:12;;;;;;;2.45;0.70;;;23.20;52.90;;;;;;3122832;28;20057;-64
2021/10/14 07:08:44;;;;;;;2.17;1.00;;;23.10;52.80;;;;;;3122634;28;20049;-64
2021/10/14 07:10:16;;;;;;;2.60;0.73;;;23.20;52.90;;;;;;3126289;28;20072;-64
2021/10/14 07:11:53;;;;;;;1.38;0.57;;;23.10;52.90;;;;;;3134888;28;20044;-64
2021/10/14 07:13:27;;;;;;;1.73;0.60;;;23.10;53.00;;;;;;3134390;28;20059;-64
2021/10/14 07:14:58;;;;;;;2.58;0.60;;;23.10;53.00;;;;;;3127092;28;20081;-64
2021/10/14 07:16:31;;;;;;;3.50;0.60;;;23.20;53.10;;;;;;3121766;28;20050;-64
2021/10/14 07:18:02;;;;;;;2.53;0.75;;;23.20;53.00;;;;;;3130293;28;20077;-64
2021/10/14 07:19:35;;;;;;;2.17;0.80;;;23.20;53.10;;;;;;3134307;28;20048;-64
2021/10/14 07:21:09;;;;;;;2.20;0.68;;;23.20;53.10;;;;;;3126150;28;20485;-64
2021/10/14 07:22:40;;;;;;;3.55;0.90;;;23.20;53.20;;;;;;3122498;28;20075;-64
2021/10/14 07:24:12;;;;;;;1.48;0.68;;;23.20;53.20;;;;;;3127762;28;20053;-64
2021/10/14 07:25:44;;;;;;;1.75;0.70;;;23.20;53.20;;;;;;3133094;28;20052;-64
2021/10/14 07:27:16;;;;;;;1.50;0.63;;;23.10;53.90;;;;;;3128157;28;20052;-64
2021/10/14 07:28:50;;;;;;;1.92;0.75;;;23.10;53.40;;;;;;3131392;28;20056;-64
2021/10/14 07:30:22;;;;;;;2.33;0.70;;;23.10;53.50;;;;;;3132699;28;20044;-64
2021/10/14 07:31:54;;;;;;;2.08;0.63;;;23.10;53.50;;;;;;3119490;28;20052;-64
2021/10/14 07:33:26;;;;;;;2.17;0.70;;;23.10;53.60;;;;;;3131645;28;20320;-64
2021/10/14 07:34:57;;;;;;;1.88;0.65;;;23.10;53.60;;;;;;3128572;28;20077;-64
2021/10/14 07:36:30;;;;;;;1.92;0.70;;;23.00;53.70;;;;;;3122710;28;20466;-64
2021/10/14 07:38:03;;;;;;;;;;;23.00;53.80;;;;;;3122977;28;20049;-64
2021/10/14 07:39:34;;;;;;;2.75;0.65;;;22.90;53.80;;;;;;3121442;28;20371;-63
2021/10/14 07:41:06;;;;;;;1.80;0.70;;;22.90;54.00;;;;;;3122433;28;20049;-64
2021/10/14 07:42:38;;;;;;;2.08;0.77;;;22.90;54.00;;;;;;3115810;28;20053;-64
2021/10/14 07:44:11;;;;;;;1.92;0.65;;;22.90;54.00;;;;;;3122196;28;20064;-64
2021/10/14 07:45:44;;;;;;;3.15;0.90;;;23.00;54.00;;;;;;3124212;28;20057;-64
2021/10/14 07:47:16;;;;;;;;;;;22.90;54.00;;;;;;3124860;28;20046;-64
2021/10/14 07:48:49;;;;;;;3.40;0.88;;;22.90;54.20;;;;;;3121254;28;19928;-64
2021/10/14 07:50:20;;;;;;;1.83;0.60;;;22.90;54.30;;;;;;3120486;28;20099;-64
2021/10/14 07:51:52;;;;;;;1.70;0.68;;;22.90;54.40;;;;;;3121741;28;20140;-64
2021/10/14 07:53:24;;;;;;;2.17;0.65;;;22.90;54.50;;;;;;3121740;28;20049;-64
2021/10/14 07:54:56;;;;;;;4.78;0.90;;;22.90;54.50;;;;;;3122148;28;20448;-64
2021/10/14 07:56:28;;;;;;;2.05;0.70;;;22.90;54.50;;;;;;3121407;28;20065;-64
2021/10/14 07:57:59;;;;;;;3.17;0.70;;;22.90;54.50;;;;;;3121381;28;20060;-64
2021/10/14 07:59:32;;;;;;;2.15;0.70;;;22.90;54.60;;;;;;3123977;28;20053;-64